Time;durP1;ratioP1;P1;durP2;ratioP2;P2;SDS_P1;SDS_P2;PMS_P1;PMS_P2;Temp;Humidity;BMP_temperature;BMP_pressure;BME280_temperature;BME280_humidity;BME280_pressure;Samples;Min_cycle;Max_cycle;Signal;HPM_P1;HPM_P2
2022/11/29 00:02:17;;;;;;;24.10;14.80;;;;;;;10.08;87.80;100369.81;5020671;28;20226;-63
2022/11/29 00:04:45;;;;;;;24.40;15.50;;;;;;;10.08;88.08;100372.47;5013425;28;20209;-61
2022/11/29 00:07:14;;;;;;;26.33;15.30;;;;;;;10.08;88.13;100367.16;5015511;28;20803;-62
2022/11/29 00:09:42;;;;;;;24.03;15.07;;;;;;;10.06;88.30;100369.13;5010749;28;20239;-63
2022/11/29 00:12:12;;;;;;;28.23;14.63;;;;;;;10.10;88.59;100367.84;5016590;28;20263;-61
2022/11/29 00:14:41;;;;;;;24.33;14.33;;;;;;;10.15;88.35;100370.03;5018681;28;20305;-61
2022/11/29 00:17:09;;;;;;;22.03;14.97;;;;;;;10.17;88.00;100374.25;5019483;28;20213;-62
2022/11/29 00:19:37;;;;;;;26.17;15.63;;;;;;;10.19;87.71;100368.81;5013288;28;20211;-62
2022/11/29 00:22:05;;;;;;;23.70;14.87;;;;;;;10.20;87.85;100359.06;5013918;28;20213;-62
2022/11/29 00:24:35;;;;;;;27.70;14.80;;;;;;;10.19;87.67;100363.50;5013445;28;20220;-62
2022/11/29 00:27:03;;;;;;;21.83;14.90;;;;;;;10.16;88.09;100364.59;5009463;28;20216;-61
2022/11/29 00:29:31;;;;;;;26.23;15.00;;;;;;;10.12;88.39;100357.91;5017720;28;20578;-61
2022/11/29 00:31:59;;;;;;;25.63;15.30;;;;;;;10.01;89.40;100365.25;5017631;28;20206;-62
2022/11/29 00:34:27;;;;;;;25.20;15.33;;;;;;;10.03;89.50;100364.09;5017264;28;20249;-61
2022/11/29 00:36:55;;;;;;;21.60;14.07;;;;;;;10.01;89.74;100366.09;5013346;28;20206;-60
2022/11/29 00:39:23;;;;;;;20.60;14.30;;;;;;;10.06;89.32;100366.47;5012980;28;20328;-63
2022/11/29 00:41:52;;;;;;;21.40;14.63;;;;;;;10.11;88.75;100368.69;5016159;28;20800;-62
2022/11/29 00:44:20;;;;;;;23.57;14.53;;;;;;;10.15;88.54;100365.59;5018909;28;20217;-62
2022/11/29 00:46:48;;;;;;;20.50;13.03;;;;;;;10.16;88.03;100364.59;5013131;28;20292;-61
2022/11/29 00:49:16;;;;;;;23.47;14.80;;;;;;;10.11;88.46;100366.84;5019353;28;20205;-62
2022/11/29 00:51:44;;;;;;;25.77;14.80;;;;;;;10.01;89.85;100373.19;5018354;28;20247;-62
2022/11/29 00:54:12;;;;;;;22.73;16.07;;;;;;;9.95;90.82;100377.25;5024397;28;20220;-61
2022/11/29 00:56:40;;;;;;;27.97;17.60;;;;;;;9.88;91.19;100372.69;5016202;28;20550;-60
2022/11/29 00:59:09;;;;;;;29.07;17.87;;;;;;;9.78;92.36;100375.38;5010823;28;20259;-62
2022/11/29 01:01:36;;;;;;;27.83;16.97;;;;;;;9.72;93.09;100381.25;5014044;28;20217;-61
2022/11/29 01:04:04;;;;;;;26.10;16.93;;;;;;;9.66;93.91;100377.38;5011960;28;21168;-60
2022/11/29 01:06:32;;;;;;;27.77;18.13;;;;;;;9.62;94.25;100375.16;5015516;28;20211;-61
2022/11/29 01:09:00;;;;;;;28.67;17.63;;;;;;;9.66;94.16;100381.84;5011284;28;20205;-62
2022/11/29 01:11:28;;;;;;;24.83;17.20;;;;;;;9.77;93.21;100379.00;5007974;28;20270;-62
2022/11/29 01:13:58;;;;;;;28.70;17.00;;;;;;;9.87;91.91;100379.78;5012192;28;20650;-62
2022/11/29 01:16:30;;;;;;;23.70;16.67;;;;;;;9.87;91.11;100376.31;5013239;28;20223;-61
2022/11/29 01:18:58;;;;;;;28.27;17.17;;;;;;;9.73;91.81;100383.75;5013204;28;20819;-63
2022/11/29 01:21:25;;;;;;;25.47;17.00;;;;;;;9.73;92.45;100382.94;5016486;28;20315;-60
2022/11/29 01:23:54;;;;;;;25.13;17.20;;;;;;;9.65;92.50;100386.28;5012253;28;20212;-61
2022/11/29 01:26:24;;;;;;;23.80;16.63;;;;;;;9.70;92.64;100391.16;5010657;28;20651;-61
2022/11/29 01:28:54;;;;;;;24.27;17.37;;;;;;;9.68;92.65;100391.28;5013260;28;20211;-62
2022/11/29 01:31:24;;;;;;;24.43;17.57;;;;;;;9.71;92.53;100395.47;5009856;28;20799;-60
2022/11/29 01:33:55;;;;;;;26.40;17.00;;;;;;;9.68;92.32;100391.28;5011685;28;20678;-62
2022/11/29 01:36:24;;;;;;;27.33;18.23;;;;;;;9.68;92.26;100395.75;5010069;28;20212;-61
2022/11/29 01:38:52;;;;;;;28.87;17.63;;;;;;;9.71;92.04;100396.31;5012502;28;20307;-61
2022/11/29 01:41:22;;;;;;;25.20;17.47;;;;;;;9.75;91.71;100392.41;5012749;28;20213;-62
2022/11/29 01:44:00;;;;;;;29.63;17.97;;;;;;;9.77;91.36;100393.06;5014625;28;20214;-62
2022/11/29 01:46:29;;;;;;;27.17;18.13;;;;;;;9.83;90.79;100396.97;5012037;28;20205;-61
2022/11/29 01:49:04;;;;;;;28.43;17.53;;;;;;;9.79;90.25;100406.16;5011958;28;20549;-62
2022/11/29 01:51:34;;;;;;;28.10;17.23;;;;;;;9.74;90.69;100401.31;5012893;28;20211;-63
2022/11/29 01:54:02;;;;;;;28.20;17.37;;;;;;;9.79;90.60;100399.06;5012115;28;20213;-61
2022/11/29 01:56:33;;;;;;;28.93;17.90;;;;;;;9.79;90.10;100399.06;5010998;28;20902;-63
2022/11/29 01:59:02;;;;;;;34.37;17.57;;;;;;;9.86;89.73;100409.91;5011368;28;20236;-60
2022/11/29 02:01:31;;;;;;;28.27;17.23;;;;;;;9.93;88.78;100397.78;5015804;28;20651;-61
2022/11/29 02:04:00;;;;;;;26.90;17.07;;;;;;;9.86;88.52;100391.38;5012986;28;20201;-62
2022/11/29 02:06:30;;;;;;;26.93;17.00;;;;;;;9.88;88.65;100399.16;5015316;28;20221;-62
2022/11/29 02:08:58;;;;;;;25.73;16.20;;;;;;;9.90;88.16;100400.69;5011518;28;20206;-60
2022/11/29 02:11:56;;;;;;;25.40;16.60;;;;;;;9.92;87.96;100409.34;5012239;28;20229;-61
2022/11/29 02:14:35;;;;;;;25.07;16.07;;;;;;;9.91;87.79;100402.38;5010908;28;20212;-60
2022/11/29 02:17:14;;;;;;;24.80;15.77;;;;;;;9.90;88.27;100397.22;5010373;28;20209;-61
2022/11/29 02:20:21;;;;;;;24.40;16.13;;;;;;;9.88;87.94;100401.81;5012275;28;20222;-61
2022/11/29 02:22:57;;;;;;;23.63;15.90;;;;;;;9.84;88.12;100400.44;5012252;28;20779;-62
2022/11/29 02:25:42;;;;;;;23.30;15.53;;;;;;;9.77;88.85;100401.00;5013263;28;20291;-61
2022/11/29 02:29:03;;;;;;;23.67;15.10;;;;;;;9.84;88.47;100406.59;5009853;28;20267;-62
2022/11/29 02:31:54;;;;;;;22.80;15.00;;;;;;;9.70;88.84;100405.22;5017273;28;20662;-61
2022/11/29 02:34:38;;;;;;;22.93;15.40;;;;;;;9.62;89.88;100404.28;5009328;28;20212;-60
2022/11/29 02:37:24;;;;;;;24.57;14.80;;;;;;;9.60;90.12;100400.94;5012315;28;20217;-61
2022/11/29 02:40:06;;;;;;;21.33;15.17;;;;;;;9.69;90.08;100408.00;5010001;28;20247;-60
2022/11/29 02:42:52;;;;;;;25.23;15.77;;;;;;;9.68;89.77;100401.03;5017200;28;21402;-59
2022/11/29 02:45:41;;;;;;;21.40;14.13;;;;;;;9.57;90.38;100402.06;5013974;28;20676;-61
2022/11/29 02:48:22;;;;;;;22.17;14.90;;;;;;;9.64;90.24;100411.09;5013320;28;20260;-62
2022/11/29 02:50:57;;;;;;;24.27;15.57;;;;;;;9.62;90.35;100417.50;5009065;28;20233;-61
2022/11/29 02:53:32;;;;;;;19.70;13.73;;;;;;;9.54;90.79;100414.75;5013126;28;20655;-60
2022/11/29 02:56:10;;;;;;;22.13;14.33;;;;;;;9.54;90.90;100409.44;5009598;28;20209;-62
2022/11/29 02:58:47;;;;;;;23.00;15.03;;;;;;;9.62;91.08;100409.56;5009678;28;20278;-62
2022/11/29 03:01:20;;;;;;;22.67;14.50;;;;;;;9.69;89.76;100408.84;5013224;28;20201;-62
2022/11/29 03:03:56;;;;;;;20.17;13.67;;;;;;;9.76;88.85;100409.13;5014927;28;20228;-60
2022/11/29 03:06:35;;;;;;;19.47;14.03;;;;;;;9.77;88.72;100416.06;5012749;28;20662;-61
2022/11/29 03:09:09;;;;;;;19.47;12.90;;;;;;;9.85;88.12;100421.47;5009339;28;20209;-60
2022/11/29 03:11:43;;;;;;;19.60;13.07;;;;;;;9.76;88.13;100419.72;5008208;28;20235;-62
2022/11/29 03:14:17;;;;;;;23.37;13.97;;;;;;;9.69;88.79;100424.72;5012064;28;20209;-60
2022/11/29 03:16:52;;;;;;;21.53;13.33;;;;;;;9.66;89.19;100429.50;5011335;28;20215;-61
2022/11/29 03:19:36;;;;;;;21.17;12.97;;;;;;;9.68;89.23;100427.50;5007771;28;20229;-61
2022/11/29 03:22:12;;;;;;;20.83;13.33;;;;;;;9.63;89.33;100429.78;5006849;28;20213;-59
2022/11/29 03:24:50;;;;;;;19.57;12.97;;;;;;;9.66;89.50;100432.16;5010428;28;20225;-61
2022/11/29 03:27:25;;;;;;;18.50;12.93;;;;;;;9.63;89.39;100430.59;5011619;28;20209;-61
2022/11/29 03:29:59;;;;;;;17.87;12.43;;;;;;;9.72;89.17;100436.84;5011309;28;20209;-63
2022/11/29 03:32:34;;;;;;;20.43;13.00;;;;;;;9.79;88.48;100432.66;5024735;28;20206;-61
2022/11/29 03:35:10;;;;;;;20.03;12.83;;;;;;;9.77;88.85;100429.31;5017222;28;20209;-61
2022/11/29 03:37:47;;;;;;;20.87;13.30;;;;;;;9.68;88.56;100432.81;5012697;28;20258;-60
2022/11/29 03:40:19;;;;;;;17.10;11.67;;;;;;;9.63;89.14;100440.34;5008706;28;20280;-61
2022/11/29 03:43:00;;;;;;;18.63;12.57;;;;;;;9.65;89.05;100443.72;5012138;28;20210;-61
2022/11/29 03:45:33;;;;;;;16.50;11.80;;;;;;;9.53;89.67;100439.53;5012832;28;20224;-59
2022/11/29 03:48:06;;;;;;;18.97;13.00;;;;;;;9.46;90.73;100443.75;5014319;28;20206;-60
2022/11/29 03:50:38;;;;;;;16.50;12.00;;;;;;;9.56;90.37;100444.56;5010916;28;20306;-60
2022/11/29 03:53:16;;;;;;;16.70;11.83;;;;;;;9.52;90.12;100444.00;5013720;28;20205;-62
2022/11/29 03:55:50;;;;;;;15.37;11.33;;;;;;;9.52;89.94;100435.22;5016060;28;20581;-60
2022/11/29 03:58:42;;;;;;;17.00;12.03;;;;;;;9.50;90.22;100434.56;5015665;28;20293;-61
2022/11/29 04:01:42;;;;;;;17.07;11.57;;;;;;;9.54;90.17;100441.22;5014646;28;20225;-62
2022/11/29 04:04:49;;;;;;;14.50;10.40;;;;;;;9.54;89.91;100441.22;5016677;28;20217;-60
2022/11/29 04:07:34;;;;;;;18.07;11.57;;;;;;;9.51;90.16;100441.47;5013941;28;20213;-61
2022/11/29 04:10:17;;;;;;;15.83;11.50;;;;;;;9.50;90.08;100445.94;5013566;28;21309;-62
2022/11/29 04:13:15;;;;;;;14.47;10.57;;;;;;;9.46;90.03;100439.28;5017424;28;20952;-63
2022/11/29 04:16:10;;;;;;;14.93;10.33;;;;;;;9.43;90.40;100439.56;5011642;28;20300;-63
2022/11/29 04:19:09;;;;;;;14.63;10.30;;;;;;;9.43;90.27;100447.50;5016746;28;20604;-60
2022/11/29 04:21:55;;;;;;;13.37;9.83;;;;;;;9.36;90.49;100444.59;5017386;28;20209;-62
2022/11/29 04:24:54;;;;;;;14.17;10.23;;;;;;;9.34;91.33;100440.41;5018248;28;20642;-62
2022/11/29 04:27:40;;;;;;;18.03;10.83;;;;;;;9.49;90.84;100448.75;5011320;28;20209;-65
2022/11/29 04:30:13;;;;;;;13.77;10.17;;;;;;;9.52;90.26;100449.28;5015623;28;20213;-62
2022/11/29 04:33:05;;;;;;;16.63;11.13;;;;;;;9.64;89.85;100458.75;5016183;28;20580;-61
2022/11/29 04:35:41;;;;;;;15.40;11.07;;;;;;;9.57;89.39;100462.13;5016012;28;20539;-62
2022/11/29 04:38:32;;;;;;;14.47;10.47;;;;;;;9.56;89.73;100463.09;5017067;28;20209;-63
2022/11/29 04:41:18;;;;;;;15.60;10.70;;;;;;;9.68;89.32;100461.94;5017398;28;20283;-61
2022/11/29 04:43:58;;;;;;;16.03;11.17;;;;;;;9.70;88.56;100473.22;5012281;28;20263;-60
2022/11/29 04:46:40;;;;;;;15.07;10.93;;;;;;;9.61;89.16;100474.06;5013675;28;20211;-60
2022/11/29 04:49:33;;;;;;;15.40;10.73;;;;;;;9.61;89.63;100468.78;5017155;28;20291;-61
2022/11/29 04:52:23;;;;;;;17.37;11.73;;;;;;;9.60;89.57;100470.59;5009402;28;20205;-60
2022/11/29 04:54:59;;;;;;;15.10;10.17;;;;;;;9.58;89.96;100467.28;5010360;28;20209;-61
2022/11/29 04:57:35;;;;;;;14.23;10.60;;;;;;;9.64;89.69;100469.34;5012285;28;20208;-63
2022/11/29 05:00:08;;;;;;;14.67;10.87;;;;;;;9.75;88.99;100476.31;5013239;28;20723;-61
2022/11/29 05:02:45;;;;;;;15.63;11.27;;;;;;;9.74;88.48;100471.97;5012287;28;20209;-62
2022/11/29 05:05:24;;;;;;;15.20;10.80;;;;;;;9.67;88.87;100476.19;5014073;28;20212;-60
2022/11/29 05:08:02;;;;;;;18.30;11.63;;;;;;;9.58;89.59;100479.69;5020759;28;20205;-61
2022/11/29 05:10:35;;;;;;;19.83;11.47;;;;;;;9.53;90.44;100487.19;5016107;28;20284;-60
2022/11/29 05:13:12;;;;;;;14.90;10.37;;;;;;;9.51;90.57;100481.19;5022477;28;20909;-61
2022/11/29 05:16:02;;;;;;;16.00;11.43;;;;;;;9.45;91.26;100482.59;5020181;28;20633;-63
2022/11/29 05:18:54;;;;;;;15.97;11.13;;;;;;;9.50;91.38;100490.94;5015092;28;20231;-61
2022/11/29 05:21:35;;;;;;;18.53;12.30;;;;;;;9.61;90.75;100482.03;5017457;28;20222;-60
2022/11/29 05:24:17;;;;;;;17.47;11.90;;;;;;;9.66;90.36;100493.03;5018479;28;20219;-61
2022/11/29 05:26:52;;;;;;;19.77;12.03;;;;;;;9.70;90.03;100499.72;5021584;28;20212;-62
2022/11/29 05:29:29;;;;;;;21.50;13.27;;;;;;;9.67;90.21;100500.00;5023974;28;20220;-62
2022/11/29 05:32:16;;;;;;;18.17;13.07;;;;;;;9.68;89.76;100499.84;5020718;28;20207;-61
2022/11/29 05:35:01;;;;;;;15.57;10.93;;;;;;;9.75;89.54;100502.78;5016761;28;20679;-60
2022/11/29 05:37:38;;;;;;;15.83;11.83;;;;;;;9.75;89.07;100508.09;5026351;28;20212;-61
2022/11/29 05:40:33;;;;;;;26.63;14.97;;;;;;;9.66;89.57;100506.28;5020879;28;20240;-60
2022/11/29 05:43:12;;;;;;;19.07;12.57;;;;;;;9.52;90.71;100506.69;5019302;28;20210;-61
2022/11/29 05:45:46;;;;;;;15.77;10.97;;;;;;;9.43;91.51;100511.00;5019454;28;20571;-61
2022/11/29 05:48:24;;;;;;;17.03;11.10;;;;;;;9.47;91.76;100516.88;5025189;28;20198;-63
2022/11/29 05:51:05;;;;;;;16.27;11.83;;;;;;;9.43;91.83;100518.94;5018784;28;20206;-61
2022/11/29 05:53:42;;;;;;;16.53;11.73;;;;;;;9.37;92.31;100520.34;5018442;28;20620;-61
2022/11/29 05:56:17;;;;;;;19.70;12.57;;;;;;;9.36;92.66;100523.97;5019301;28;20271;-61
2022/11/29 05:58:50;;;;;;;16.93;12.33;;;;;;;9.41;92.59;100520.94;5017767;28;20210;-63
2022/11/29 06:01:22;;;;;;;16.03;11.93;;;;;;;9.47;92.36;100525.66;5018910;28;20235;-60
2022/11/29 06:04:01;;;;;;;14.53;10.90;;;;;;;9.55;91.53;100532.91;5025234;28;20216;-61
2022/11/29 06:06:38;;;;;;;17.33;11.20;;;;;;;9.63;90.86;100528.56;5014018;28;20248;-60
2022/11/29 06:09:15;;;;;;;17.27;11.87;;;;;;;9.62;90.70;100536.66;5020069;28;20850;-60
2022/11/29 06:11:46;;;;;;;16.10;12.10;;;;;;;9.60;90.47;100541.25;5019832;28;20625;-61
2022/11/29 06:14:42;;;;;;;20.93;13.43;;;;;;;9.58;90.66;100537.91;5014372;28;20209;-62
2022/11/29 06:17:47;;;;;;;18.27;11.63;;;;;;;9.55;90.78;100551.44;5018275;28;20379;-60
2022/11/29 06:20:33;;;;;;;16.17;11.33;;;;;;;9.60;90.94;100546.53;5021820;28;20201;-60
2022/11/29 06:23:28;;;;;;;16.33;10.73;;;;;;;9.65;90.35;100554.91;5018531;28;20213;-61
2022/11/29 06:26:11;;;;;;;13.10;9.67;;;;;;;9.68;89.82;100557.25;5017594;28;20577;-61
2022/11/29 06:28:53;;;;;;;16.23;11.20;;;;;;;9.68;89.65;100559.91;5020206;28;20211;-60
2022/11/29 06:31:26;;;;;;;14.53;10.57;;;;;;;9.72;89.42;100556.00;5016465;28;20201;-60
2022/11/29 06:34:00;;;;;;;14.20;10.67;;;;;;;9.68;89.19;100559.91;5014618;28;20291;-61
2022/11/29 06:36:34;;;;;;;15.77;11.57;;;;;;;9.59;89.34;100558.94;5019483;28;20650;-60
2022/11/29 06:39:03;;;;;;;14.60;10.63;;;;;;;9.67;89.65;100563.56;5023783;28;20208;-61
2022/11/29 06:41:31;;;;;;;17.53;11.87;;;;;;;9.70;89.16;100565.91;5023921;28;20228;-62
2022/11/29 06:44:00;;;;;;;16.47;11.70;;;;;;;9.68;88.95;100566.03;5020602;28;20292;-61
2022/11/29 06:46:39;;;;;;;15.47;10.47;;;;;;;9.65;88.79;100566.34;5021040;28;20212;-61
2022/11/29 06:49:12;;;;;;;15.43;11.40;;;;;;;9.60;89.32;100568.56;5018450;28;20207;-60
2022/11/29 06:51:51;;;;;;;17.00;11.87;;;;;;;9.58;89.68;100574.97;5013412;28;20747;-61
2022/11/29 06:54:31;;;;;;;30.83;20.17;;;;;;;9.53;89.69;100571.91;5018624;28;20692;-61
2022/11/29 06:57:08;;;;;;;24.70;13.23;;;;;;;9.57;89.92;100582.09;5020152;28;20216;-60
2022/11/29 06:59:50;;;;;;;16.53;11.47;;;;;;;9.58;89.76;100585.56;5021478;28;20196;-60
2022/11/29 07:02:34;;;;;;;15.87;11.73;;;;;;;9.62;89.38;100587.78;5015456;28;20233;-62
2022/11/29 07:05:13;;;;;;;17.47;11.47;;;;;;;9.66;89.03;100588.34;5021380;28;20206;-62
2022/11/29 07:07:45;;;;;;;14.77;11.47;;;;;;;9.68;88.69;100589.88;5027058;28;20582;-61
2022/11/29 07:10:17;;;;;;;15.43;11.17;;;;;;;9.62;88.82;100589.59;5025533;28;20316;-62
2022/11/29 07:12:46;;;;;;;15.73;11.20;;;;;;;9.62;89.18;100600.19;5022823;28;20327;-63
2022/11/29 07:15:16;;;;;;;15.00;11.53;;;;;;;9.66;89.07;100599.78;5024600;28;20209;-60
2022/11/29 07:17:55;;;;;;;16.00;11.57;;;;;;;9.69;88.73;100610.09;5022339;28;20215;-61
2022/11/29 07:20:34;;;;;;;15.53;11.00;;;;;;;9.71;88.61;100607.31;5017880;28;20204;-61
2022/11/29 07:23:13;;;;;;;17.37;11.50;;;;;;;9.72;88.40;100608.97;5021679;28;20528;-60
2022/11/29 07:25:50;;;;;;;16.67;11.93;;;;;;;9.74;88.40;100612.31;5027195;28;20209;-62
2022/11/29 07:28:30;;;;;;;16.07;12.00;;;;;;;9.68;88.46;100610.22;5030513;28;20205;-61
2022/11/29 07:31:05;;;;;;;16.83;12.10;;;;;;;9.57;89.36;100607.72;5028152;28;20215;-60
2022/11/29 07:33:45;;;;;;;18.10;12.47;;;;;;;9.53;90.17;100608.97;5025555;28;20236;-60
2022/11/29 07:36:21;;;;;;;59.90;35.30;;;;;;;9.50;90.71;100610.06;5019457;28;20217;-61
2022/11/29 07:39:03;;;;;;;24.43;16.17;;;;;;;9.57;90.57;100615.66;5019286;28;20254;-63
2022/11/29 07:41:41;;;;;;;19.33;12.93;;;;;;;9.56;90.41;100616.63;5026071;28;20229;-61
2022/11/29 07:44:18;;;;;;;18.90;12.67;;;;;;;9.55;90.46;100612.31;5025448;28;20202;-62
2022/11/29 07:46:46;;;;;;;20.17;13.07;;;;;;;9.63;90.18;100615.09;5027274;28;20725;-61
2022/11/29 07:49:14;;;;;;;17.90;11.80;;;;;;;9.68;89.52;100619.00;5026544;28;20639;-63
2022/11/29 07:51:41;;;;;;;20.27;12.80;;;;;;;9.70;89.32;100617.06;5022675;28;20213;-61
2022/11/29 07:54:15;;;;;;;19.17;12.97;;;;;;;9.77;88.93;100622.63;5024659;28;20273;-63
2022/11/29 07:56:43;;;;;;;17.93;12.23;;;;;;;9.69;89.00;100619.84;5020167;28;20201;-61
2022/11/29 07:59:11;;;;;;;20.13;12.80;;;;;;;9.62;89.64;100619.56;5025480;28;20205;-61
2022/11/29 08:01:40;;;;;;;18.20;12.97;;;;;;;9.63;90.26;100625.69;5025625;28;20238;-61
2022/11/29 08:04:08;;;;;;;16.20;12.20;;;;;;;9.74;89.94;100626.41;5029275;28;20245;-61
2022/11/29 08:06:37;;;;;;;18.33;12.57;;;;;;;9.80;89.20;100627.66;5028351;28;20316;-60
2022/11/29 08:09:06;;;;;;;17.33;11.50;;;;;;;9.75;89.32;100630.72;5022764;28;20206;-61
2022/11/29 08:11:35;;;;;;;16.87;12.23;;;;;;;9.70;89.92;100632.09;5015037;28;20247;-60
2022/11/29 08:14:05;;;;;;;19.67;13.00;;;;;;;9.71;90.40;100623.19;4999749;28;20300;-62
2022/11/29 08:16:33;;;;;;;19.23;11.90;;;;;;;9.76;90.01;100635.03;4999602;28;20695;-60
2022/11/29 08:19:00;;;;;;;18.57;13.30;;;;;;;9.74;89.95;100637.00;5002648;28;20216;-61
2022/11/29 08:21:28;;;;;;;19.07;13.20;;;;;;;9.78;90.44;100642.84;5001392;28;20229;-62
2022/11/29 08:23:56;;;;;;;19.23;13.10;;;;;;;9.89;90.07;100641.88;4998312;28;20245;-61
2022/11/29 08:26:24;;;;;;;21.90;12.77;;;;;;;9.96;89.53;100642.97;5000473;28;20222;-60
2022/11/29 08:28:59;;;;;;;18.63;12.43;;;;;;;10.02;89.23;100639.78;4999326;28;20227;-60
2022/11/29 08:31:27;;;;;;;17.70;12.03;;;;;;;10.05;88.69;100640.31;5009491;28;20252;-62
2022/11/29 08:33:55;;;;;;;18.50;12.20;;;;;;;10.12;88.40;100638.78;5001965;28;20208;-61
2022/11/29 08:36:22;;;;;;;22.40;14.07;;;;;;;10.15;88.03;100643.81;5001628;28;20561;-60
2022/11/29 08:38:50;;;;;;;19.70;12.93;;;;;;;10.11;88.52;100653.00;4996208;28;20217;-60
2022/11/29 08:41:28;;;;;;;15.37;11.23;;;;;;;10.20;88.05;100655.84;5006936;28;20252;-61
2022/11/29 08:43:56;;;;;;;17.10;11.73;;;;;;;10.24;87.87;100649.28;5005094;28;20217;-62
2022/11/29 08:47:34;;;;;;;16.07;11.93;;;;;;;10.27;87.72;100655.13;5010857;28;20637;-61
2022/11/29 08:49:13;;;;;;;18.17;11.73;;;;;;;10.18;88.07;100653.34;5000594;28;20212;-61
2022/11/29 08:51:41;;;;;;;17.23;11.50;;;;;;;10.08;88.75;100660.41;4999813;28;20211;-60
2022/11/29 08:54:08;;;;;;;18.03;13.10;;;;;;;10.01;89.46;100670.75;5001936;28;20211;-60
2022/11/29 08:56:36;;;;;;;19.40;11.63;;;;;;;10.03;90.15;100667.94;4996109;28;20683;-61
2022/11/29 08:59:24;;;;;;;18.73;11.77;;;;;;;10.13;89.81;100671.41;5005993;28;20210;-60
2022/11/29 09:01:53;;;;;;;17.57;11.60;;;;;;;10.24;88.69;100673.13;5005289;28;20231;-60
2022/11/29 09:04:21;;;;;;;22.13;12.73;;;;;;;10.25;88.07;100674.81;5007396;28;20211;-61
2022/11/29 09:06:49;;;;;;;38.10;18.20;;;;;;;10.27;88.13;100683.47;5001399;28;20211;-61
2022/11/29 09:09:17;;;;;;;123.93;49.83;;;;;;;10.32;87.91;100687.34;5002076;28;20213;-61
2022/11/29 09:11:45;;;;;;;111.73;47.23;;;;;;;10.30;87.68;100686.63;5000871;28;20592;-61
2022/11/29 09:14:17;;;;;;;122.10;50.37;;;;;;;10.30;87.98;100688.44;5018987;28;20206;-61
2022/11/29 09:16:45;;;;;;;64.50;30.77;;;;;;;10.35;88.06;100686.22;5021300;28;20206;-61
2022/11/29 09:19:14;;;;;;;44.40;22.93;;;;;;;10.37;87.70;100686.94;5020764;28;20218;-61
2022/11/29 09:21:42;;;;;;;34.27;18.10;;;;;;;10.45;87.43;100692.38;5021271;28;20288;-61
2022/11/29 09:24:10;;;;;;;27.10;14.77;;;;;;;10.51;87.04;100691.78;5021790;28;20219;-61
2022/11/29 09:26:39;;;;;;;20.93;13.97;;;;;;;10.54;87.00;100692.34;5021730;28;20301;-61
2022/11/29 09:29:08;;;;;;;19.67;13.23;;;;;;;10.46;87.43;100699.34;5018786;28;20215;-60
2022/11/29 09:31:35;;;;;;;18.43;13.07;;;;;;;10.46;87.94;100691.38;5022764;28;20568;-62
2022/11/29 09:34:03;;;;;;;17.73;12.30;;;;;;;10.48;87.51;100697.38;5021938;28;20632;-60
2022/11/29 09:36:33;;;;;;;19.53;12.93;;;;;;;10.53;87.26;100705.75;5025778;28;20599;-61
2022/11/29 09:39:02;;;;;;;18.23;12.30;;;;;;;10.56;87.00;100706.28;5019868;28;20214;-61
2022/11/29 09:41:55;;;;;;;22.57;13.03;;;;;;;10.60;87.13;100717.44;5018638;28;20209;-62
2022/11/29 09:44:35;;;;;;;19.63;13.53;;;;;;;10.60;86.87;100720.09;5023870;28;20567;-61
2022/11/29 09:47:19;;;;;;;18.73;13.03;;;;;;;10.61;86.45;100716.47;5019117;28;20550;-62
2022/11/29 09:49:56;;;;;;;20.17;13.50;;;;;;;10.61;86.97;100715.63;5023705;28;20222;-60
2022/11/29 09:52:36;;;;;;;22.83;12.73;;;;;;;10.67;86.54;100718.56;5024809;28;20564;-62
2022/11/29 09:55:22;;;;;;;19.07;13.30;;;;;;;10.67;86.78;100718.56;5023155;28;20210;-62
2022/11/29 09:57:52;;;;;;;20.17;12.30;;;;;;;10.62;87.02;100715.50;5016440;28;20853;-63
2022/11/29 10:00:21;;;;;;;17.30;12.73;;;;;;;10.61;87.19;100716.47;5020322;28;20439;-61
2022/11/29 10:02:53;;;;;;;20.47;13.40;;;;;;;10.59;88.22;100721.06;5017597;28;20227;-60
2022/11/29 10:05:27;;;;;;;19.77;13.43;;;;;;;10.56;89.04;100716.06;5025093;28;20206;-61
2022/11/29 10:08:01;;;;;;;20.13;12.87;;;;;;;10.60;88.46;100717.44;5020037;28;20210;-60
2022/11/29 10:10:32;;;;;;;21.17;13.50;;;;;;;10.61;88.77;100721.78;5021309;28;20305;-61
2022/11/29 10:13:05;;;;;;;21.43;13.80;;;;;;;10.64;88.36;100724.16;5018857;28;20241;-62
2022/11/29 10:15:40;;;;;;;20.87;12.73;;;;;;;10.62;88.07;100720.81;5024687;28;20288;-61
2022/11/29 10:18:16;;;;;;;21.13;14.43;;;;;;;10.60;88.35;100728.06;5015307;28;20218;-63
2022/11/29 10:20:47;;;;;;;21.07;14.13;;;;;;;10.62;88.36;100720.81;5015539;28;20525;-61
2022/11/29 10:23:23;;;;;;;22.50;14.10;;;;;;;10.60;88.79;100722.75;5020830;28;20221;-63
2022/11/29 10:25:53;;;;;;;21.47;13.87;;;;;;;10.57;89.41;100723.03;5024623;28;20216;-63
2022/11/29 10:28:24;;;;;;;24.80;14.67;;;;;;;10.50;90.72;100719.28;5017606;28;20301;-61
2022/11/29 10:30:55;;;;;;;21.60;14.53;;;;;;;10.51;90.79;100715.66;5019180;28;20202;-62
2022/11/29 10:33:27;;;;;;;26.13;14.77;;;;;;;10.56;89.95;100714.22;5016181;28;20205;-61
2022/11/29 10:35:56;;;;;;;23.37;15.00;;;;;;;10.63;89.14;100719.84;5019129;28;20684;-61
2022/11/29 10:38:26;;;;;;;23.73;15.50;;;;;;;10.65;88.58;100709.06;5020059;28;20213;-61
2022/11/29 10:41:04;;;;;;;20.47;15.27;;;;;;;10.64;89.90;100710.91;5020305;28;20243;-62
2022/11/29 10:43:32;;;;;;;26.27;15.60;;;;;;;10.63;90.02;100711.88;5016612;28;20244;-61
2022/11/29 10:46:01;;;;;;;25.93;15.97;;;;;;;10.71;89.27;100719.94;5018876;28;20206;-61
2022/11/29 10:48:32;;;;;;;23.50;15.40;;;;;;;10.71;88.46;100714.66;5020766;28;20670;-60
2022/11/29 10:51:01;;;;;;;21.17;15.17;;;;;;;10.75;88.75;100717.84;5018244;28;20245;-63
2022/11/29 10:53:35;;;;;;;23.77;15.63;;;;;;;10.75;88.98;100716.00;5022432;28;20204;-60
2022/11/29 10:56:06;;;;;;;25.00;17.07;;;;;;;10.74;89.62;100714.34;5025488;28;20304;-62
2022/11/29 10:58:35;;;;;;;33.07;21.97;;;;;;;10.72;89.58;100724.28;5020293;28;20210;-62
2022/11/29 11:01:05;;;;;;;29.73;18.60;;;;;;;10.76;88.87;100723.00;5024795;28;20203;-62
2022/11/29 11:03:37;;;;;;;28.00;17.53;;;;;;;10.71;90.37;100724.41;5023478;28;20241;-59
2022/11/29 11:06:15;;;;;;;26.20;17.83;;;;;;;10.73;90.36;100719.81;5024261;28;20202;-61
2022/11/29 11:08:47;;;;;;;29.03;18.03;;;;;;;10.76;90.28;100717.69;5016246;28;20197;-61
2022/11/29 11:11:24;;;;;;;27.63;18.17;;;;;;;10.77;89.79;100713.22;5018040;28;20587;-60
2022/11/29 11:13:59;;;;;;;32.87;19.87;;;;;;;10.83;89.19;100713.47;5021721;28;20241;-61
2022/11/29 11:16:27;;;;;;;27.60;18.60;;;;;;;10.81;89.56;100722.59;5019252;28;20614;-61
2022/11/29 11:19:24;;;;;;;28.60;17.67;;;;;;;10.79;88.89;100712.09;5021586;28;20240;-61
2022/11/29 11:21:52;;;;;;;34.57;20.50;;;;;;;10.82;88.50;100719.75;5020464;28;20305;-61
2022/11/29 11:24:24;;;;;;;43.87;25.10;;;;;;;10.87;88.97;100714.03;5015603;28;20223;-61
2022/11/29 11:26:52;;;;;;;30.53;18.77;;;;;;;10.89;89.34;100715.59;5018088;28;20205;-61
2022/11/29 11:29:24;;;;;;;28.90;17.70;;;;;;;10.94;89.29;100712.47;5017748;28;20223;-63
2022/11/29 11:31:56;;;;;;;25.97;17.03;;;;;;;10.96;89.06;100718.47;5014809;28;20204;-62
2022/11/29 11:34:30;;;;;;;26.90;17.17;;;;;;;10.92;90.55;100722.38;5029212;28;20209;-63
2022/11/29 11:37:18;;;;;;;28.90;18.57;;;;;;;10.87;91.39;100714.88;5027118;28;20556;-63
2022/11/29 11:39:49;;;;;;;27.13;17.83;;;;;;;10.87;90.93;100720.19;5023466;28;20230;-62
2022/11/29 11:42:39;;;;;;;26.47;15.90;;;;;;;10.90;90.21;100719.91;5019525;28;20212;-60
2022/11/29 11:45:27;;;;;;;32.80;16.97;;;;;;;10.97;88.55;100727.28;5017449;28;20223;-60
2022/11/29 11:47:57;;;;;;;24.23;16.50;;;;;;;10.98;89.73;100731.63;5017755;28;20672;-62
2022/11/29 11:50:29;;;;;;;27.77;17.77;;;;;;;11.01;89.61;100733.97;5025709;28;20216;-62
2022/11/29 11:52:59;;;;;;;31.27;18.50;;;;;;;11.02;90.31;100738.28;5027758;28;20239;-62